Time;durP1;ratioP1;P1;durP2;ratioP2;P2;SDS_P1;SDS_P2;PMS_P1;PMS_P2;Temp;Humidity;BMP_temperature;BMP_pressure;BME280_temperature;BME280_humidity;BME280_pressure;Samples;Min_cycle;Max_cycle;Signal;HPM_P1;HPM_P2
2022/08/27 00:01:35;;;;;;;35.20;32.17;;;19.80;99.90;;;;;;6141224;23;20936;-69
2022/08/27 00:04:02;;;;;;;32.73;29.90;;;19.80;99.90;;;;;;6125013;23;20455;-69
2022/08/27 00:06:29;;;;;;;31.00;28.40;;;19.80;99.90;;;;;;6120987;23;20857;-69
2022/08/27 00:08:57;;;;;;;30.37;27.80;;;19.80;99.90;;;;;;6140899;23;20469;-69
2022/08/27 00:11:25;;;;;;;31.23;28.50;;;19.80;99.90;;;;;;6140530;23;20592;-69
2022/08/27 00:13:52;;;;;;;33.33;30.47;;;19.80;99.90;;;;;;6137969;23;20448;-69
2022/08/27 00:16:21;;;;;;;29.03;26.60;;;19.80;99.90;;;;;;6121050;23;20414;-69
2022/08/27 00:18:48;;;;;;;29.07;26.67;;;19.80;99.90;;;;;;6134677;23;20483;-69
2022/08/27 00:21:17;;;;;;;30.60;27.80;;;19.80;99.90;;;;;;6150420;23;20421;-69
2022/08/27 00:23:44;;;;;;;27.60;25.10;;;19.80;99.90;;;;;;6134382;23;20477;-69
2022/08/27 00:26:13;;;;;;;29.77;27.37;;;19.80;99.90;;;;;;6148637;23;20444;-69
2022/08/27 00:28:41;;;;;;;28.40;26.10;;;19.80;99.90;;;;;;6139742;23;20798;-69
2022/08/27 00:31:09;;;;;;;28.80;26.30;;;19.80;99.90;;;;;;6149852;23;20455;-69
2022/08/27 00:33:37;;;;;;;28.13;25.73;;;19.80;99.90;;;;;;6146273;23;20525;-69
2022/08/27 00:36:05;;;;;;;29.47;26.97;;;19.80;99.90;;;;;;6148137;23;20437;-69
2022/08/27 00:38:32;;;;;;;26.23;24.10;;;19.80;99.90;;;;;;6128515;23;20441;-69
2022/08/27 00:41:00;;;;;;;28.43;26.03;;;19.80;99.90;;;;;;6149959;23;20967;-69
2022/08/27 00:43:31;;;;;;;26.43;24.23;;;19.80;99.90;;;;;;6147901;23;20457;-69
2022/08/27 00:46:02;;;;;;;28.20;25.90;;;19.80;99.90;;;;;;6147137;23;20955;-69
2022/08/27 00:48:33;;;;;;;30.27;27.77;;;19.80;99.90;;;;;;6137524;23;20447;-69
2022/08/27 00:51:03;;;;;;;34.10;31.10;;;19.80;99.90;;;;;;6148422;23;20453;-69
2022/08/27 00:53:33;;;;;;;30.60;27.93;;;19.80;99.90;;;;;;6126291;23;20496;-69
2022/08/27 00:56:06;;;;;;;32.03;29.40;;;19.70;99.90;;;;;;6124937;23;20434;-69
2022/08/27 00:58:36;;;;;;;31.33;28.63;;;19.80;99.90;;;;;;6134440;23;20768;-69
2022/08/27 01:01:06;;;;;;;32.27;29.57;;;19.70;99.90;;;;;;6132764;23;20461;-69
2022/08/27 01:03:34;;;;;;;31.97;29.27;;;19.70;99.90;;;;;;6139335;23;20492;-69
2022/08/27 01:06:05;;;;;;;32.50;29.70;;;19.70;99.90;;;;;;6148558;23;20443;-69
2022/08/27 01:08:36;;;;;;;30.77;28.03;;;19.70;99.90;;;;;;6149754;23;20436;-69
2022/08/27 01:11:04;;;;;;;33.33;30.27;;;19.70;99.90;;;;;;6127025;23;20512;-70
2022/08/27 01:13:33;;;;;;;33.00;30.10;;;19.70;99.90;;;;;;6147358;23;20463;-69
2022/08/27 01:16:02;;;;;;;33.60;30.50;;;19.70;99.90;;;;;;6128835;23;20478;-69
2022/08/27 01:18:33;;;;;;;33.57;30.53;;;19.70;99.90;;;;;;6146375;23;20486;-69
2022/08/27 01:21:10;;;;;;;34.80;31.73;;;19.70;99.90;;;;;;6135177;23;20457;-69
2022/08/27 01:23:42;;;;;;;34.60;31.57;;;19.60;99.90;;;;;;6133559;23;20476;-69
2022/08/27 01:26:14;;;;;;;35.43;32.53;;;19.60;99.90;;;;;;6144593;23;20448;-68
2022/08/27 01:28:42;;;;;;;36.30;33.00;;;19.50;99.90;;;;;;6134143;23;20490;-69
2022/08/27 01:31:12;;;;;;;36.60;33.30;;;19.50;99.90;;;;;;6132880;23;20485;-69
2022/08/27 01:33:39;;;;;;;41.40;37.80;;;19.50;99.90;;;;;;6148193;23;20440;-69
2022/08/27 01:36:07;;;;;;;40.63;36.83;;;19.50;99.90;;;;;;6137415;23;20445;-69
2022/08/27 01:38:34;;;;;;;39.37;35.77;;;19.50;99.90;;;;;;6142658;23;20432;-69
2022/08/27 01:41:02;;;;;;;42.63;38.83;;;19.50;99.90;;;;;;6135125;23;20828;-69
2022/08/27 01:43:31;;;;;;;42.17;38.50;;;19.40;99.90;;;;;;6145232;23;20508;-69
2022/08/27 01:45:58;;;;;;;43.20;39.20;;;19.30;99.90;;;;;;6149028;23;20508;-69
2022/08/27 01:48:25;;;;;;;44.87;40.77;;;19.30;99.90;;;;;;6150243;23;20419;-69
2022/08/27 01:50:53;;;;;;;45.43;41.23;;;19.30;99.90;;;;;;6149546;23;22094;-69
2022/08/27 01:53:22;;;;;;;43.50;39.60;;;19.30;99.90;;;;;;6140223;23;21022;-69
2022/08/27 01:55:50;;;;;;;39.00;35.70;;;19.30;99.90;;;;;;6136101;23;20446;-69
2022/08/27 01:58:20;;;;;;;38.50;35.10;;;19.30;99.90;;;;;;6135896;23;20442;-69
2022/08/27 02:00:52;;;;;;;37.57;34.37;;;19.40;99.90;;;;;;6144547;23;20881;-69
2022/08/27 02:03:19;;;;;;;43.67;39.90;;;19.40;99.90;;;;;;6143621;23;21053;-70
2022/08/27 02:05:47;;;;;;;40.90;37.07;;;19.50;99.90;;;;;;6143632;23;20461;-69
2022/08/27 02:08:16;;;;;;;43.83;39.90;;;19.50;99.90;;;;;;6136305;23;20441;-69
2022/08/27 02:10:45;;;;;;;40.57;36.97;;;19.50;99.90;;;;;;6133846;23;20437;-69
2022/08/27 02:13:12;;;;;;;42.33;38.47;;;19.50;99.90;;;;;;6138937;23;20469;-69
2022/08/27 02:15:41;;;;;;;40.87;37.27;;;19.50;99.90;;;;;;6122819;23;20437;-69
2022/08/27 02:18:11;;;;;;;40.77;37.07;;;19.50;99.90;;;;;;6137300;23;20960;-69
2022/08/27 02:20:38;;;;;;;40.57;36.77;;;19.50;99.90;;;;;;6125948;23;20462;-69
2022/08/27 02:23:05;;;;;;;39.97;36.50;;;19.50;99.90;;;;;;6135047;23;20956;-69
2022/08/27 02:25:32;;;;;;;36.67;33.57;;;19.50;99.90;;;;;;6120400;23;21117;-69
2022/08/27 02:28:00;;;;;;;36.73;33.50;;;19.50;99.90;;;;;;6134361;23;20428;-69
2022/08/27 02:30:30;;;;;;;39.47;36.07;;;19.60;99.90;;;;;;6131530;23;20785;-70
2022/08/27 02:32:59;;;;;;;38.03;34.63;;;19.60;99.90;;;;;;6137723;23;20547;-69
2022/08/27 02:35:29;;;;;;;37.70;34.60;;;19.60;99.90;;;;;;6127065;23;20937;-69
2022/08/27 02:37:57;;;;;;;37.23;34.03;;;19.60;99.90;;;;;;6139866;23;20441;-69
2022/08/27 02:40:25;;;;;;;37.83;34.47;;;19.60;99.90;;;;;;6124633;23;20947;-69
2022/08/27 02:42:52;;;;;;;38.70;35.40;;;19.60;99.90;;;;;;6144977;23;20456;-69
2022/08/27 02:45:20;;;;;;;40.60;37.00;;;19.60;99.90;;;;;;6133441;23;20433;-69
2022/08/27 02:47:48;;;;;;;40.60;36.73;;;19.50;99.90;;;;;;6145622;23;20433;-69
2022/08/27 02:50:16;;;;;;;37.70;34.40;;;19.50;99.90;;;;;;6148726;23;20807;-69
2022/08/27 02:52:45;;;;;;;36.80;33.60;;;19.40;99.90;;;;;;6130121;23;20473;-69
2022/08/27 02:55:13;;;;;;;41.00;37.17;;;19.40;99.90;;;;;;6129591;23;20461;-69
2022/08/27 02:57:41;;;;;;;36.07;32.97;;;19.40;99.90;;;;;;6138063;23;20433;-69
2022/08/27 03:00:11;;;;;;;35.67;32.20;;;19.40;99.90;;;;;;6135198;23;20516;-69
2022/08/27 03:02:38;;;;;;;40.00;36.20;;;19.40;99.90;;;;;;6143961;23;20480;-69
2022/08/27 03:05:07;;;;;;;39.43;35.90;;;19.30;99.90;;;;;;6137547;23;20432;-69
2022/08/27 03:07:34;;;;;;;39.77;36.13;;;19.30;99.90;;;;;;6138262;23;20440;-69
2022/08/27 03:10:04;;;;;;;37.20;33.73;;;19.40;99.90;;;;;;6139173;23;20471;-69
2022/08/27 03:12:32;;;;;;;37.47;34.27;;;19.20;99.90;;;;;;6128782;23;20484;-69
2022/08/27 03:14:59;;;;;;;35.47;32.33;;;19.20;99.90;;;;;;6123719;23;20472;-69
2022/08/27 03:20:11;;;;;;;32.20;29.30;;;19.10;99.90;;;;;;6147759;23;20429;-69
2022/08/27 03:22:39;;;;;;;32.87;29.77;;;19.10;99.90;;;;;;6140381;23;20805;-69
2022/08/27 03:25:08;;;;;;;31.13;28.50;;;19.20;99.90;;;;;;6134068;23;20440;-69
2022/08/27 03:27:36;;;;;;;29.93;27.33;;;19.10;99.90;;;;;;6124007;23;20437;-69
2022/08/27 03:30:04;;;;;;;29.67;27.17;;;19.10;99.90;;;;;;6125639;23;20441;-69
2022/08/27 03:32:31;;;;;;;32.20;29.37;;;19.20;99.90;;;;;;6131804;23;20469;-69
2022/08/27 03:34:59;;;;;;;29.57;27.00;;;19.20;99.90;;;;;;6135011;23;20834;-70
2022/08/27 03:37:27;;;;;;;30.13;27.03;;;19.10;99.90;;;;;;6125086;23;20468;-69
2022/08/27 03:39:54;;;;;;;28.83;26.30;;;19.10;99.90;;;;;;6147878;23;20512;-69
2022/08/27 03:42:23;;;;;;;29.50;26.67;;;19.10;99.90;;;;;;6137839;23;20476;-69
2022/08/27 03:44:50;;;;;;;31.53;28.60;;;19.10;99.90;;;;;;6127857;23;20438;-69
2022/08/27 03:47:18;;;;;;;27.83;25.33;;;19.10;99.90;;;;;;6136146;23;20434;-69
2022/08/27 03:49:45;;;;;;;30.57;27.87;;;19.10;99.90;;;;;;6144338;23;20515;-70
2022/08/27 03:52:13;;;;;;;32.73;29.43;;;19.10;99.90;;;;;;6135953;23;20539;-69
2022/08/27 03:54:41;;;;;;;30.30;27.60;;;19.10;99.90;;;;;;6134972;23;20438;-69
2022/08/27 03:57:08;;;;;;;33.13;30.07;;;19.10;99.90;;;;;;6122247;23;20441;-69
2022/08/27 03:59:36;;;;;;;35.77;32.37;;;19.10;99.90;;;;;;6124443;23;20826;-69
2022/08/27 04:02:04;;;;;;;34.80;31.53;;;19.10;99.90;;;;;;6148318;23;20444;-69
2022/08/27 04:04:31;;;;;;;35.70;32.50;;;19.10;99.90;;;;;;6146717;23;20494;-69
2022/08/27 04:06:58;;;;;;;35.03;31.73;;;19.10;99.90;;;;;;6145344;23;20460;-69
2022/08/27 04:09:25;;;;;;;35.27;31.97;;;19.10;99.90;;;;;;6147532;23;20515;-69
2022/08/27 04:11:52;;;;;;;37.40;33.90;;;19.10;99.90;;;;;;6133604;23;20464;-69
2022/08/27 04:14:20;;;;;;;38.67;34.93;;;19.10;99.90;;;;;;6130782;23;20944;-69
2022/08/27 04:16:49;;;;;;;40.60;36.60;;;19.10;99.90;;;;;;6135755;23;20538;-69
2022/08/27 04:19:15;;;;;;;37.10;33.57;;;19.10;99.90;;;;;;6124666;23;20475;-69
2022/08/27 04:21:43;;;;;;;40.70;36.90;;;19.00;99.90;;;;;;6147183;23;20450;-69
2022/08/27 04:24:10;;;;;;;40.33;36.30;;;19.10;99.90;;;;;;6120214;23;20427;-69
2022/08/27 04:26:39;;;;;;;41.60;37.50;;;19.10;99.90;;;;;;6149271;23;20994;-69
2022/08/27 04:29:06;;;;;;;41.13;37.23;;;19.00;99.90;;;;;;6135291;23;20511;-70
2022/08/27 04:31:34;;;;;;;43.00;38.70;;;19.10;99.90;;;;;;6136638;23;20848;-69
2022/08/27 04:34:03;;;;;;;38.90;35.00;;;19.10;99.90;;;;;;6143464;23;20622;-69
2022/08/27 04:36:31;;;;;;;40.07;36.27;;;19.10;99.90;;;;;;6132251;23;20533;-69
2022/08/27 04:38:58;;;;;;;41.10;37.17;;;19.10;99.90;;;;;;6136816;23;20436;-69
2022/08/27 04:41:26;;;;;;;41.70;37.77;;;19.10;99.90;;;;;;6133628;23;20478;-68
2022/08/27 04:43:55;;;;;;;40.53;36.87;;;19.10;99.90;;;;;;6136368;23;20515;-69
2022/08/27 04:46:24;;;;;;;42.93;38.70;;;19.10;99.90;;;;;;6124932;23;20509;-69
2022/08/27 04:48:52;;;;;;;43.27;39.27;;;19.20;99.90;;;;;;6122905;23;20441;-69
2022/08/27 04:51:21;;;;;;;40.80;37.10;;;19.10;99.90;;;;;;6146957;23;20448;-69
2022/08/27 04:53:49;;;;;;;41.77;37.80;;;19.10;99.90;;;;;;6146757;23;20472;-69
2022/08/27 04:56:20;;;;;;;38.77;35.23;;;19.10;99.90;;;;;;6141781;23;20440;-69
2022/08/27 04:58:47;;;;;;;40.53;36.80;;;19.30;99.90;;;;;;6134335;23;20470;-69
2022/08/27 05:01:17;;;;;;;40.53;36.40;;;19.20;99.90;;;;;;6130990;23;20433;-69
2022/08/27 05:03:45;;;;;;;38.60;35.10;;;19.20;99.90;;;;;;6145233;23;20492;-70
2022/08/27 05:06:12;;;;;;;37.37;33.97;;;19.20;99.90;;;;;;6127532;23;20449;-69
2022/08/27 05:08:41;;;;;;;40.83;37.23;;;19.30;99.90;;;;;;6131796;23;20543;-69
2022/08/27 05:11:09;;;;;;;38.90;35.40;;;19.30;99.90;;;;;;6149880;23;20490;-69
2022/08/27 05:13:38;;;;;;;39.37;35.83;;;19.40;99.90;;;;;;6145263;23;20556;-69
2022/08/27 05:16:08;;;;;;;35.90;32.63;;;19.40;99.90;;;;;;6147299;23;20934;-69
2022/08/27 05:18:35;;;;;;;37.63;34.13;;;19.40;99.90;;;;;;6146560;23;20477;-69
2022/08/27 05:21:04;;;;;;;36.17;33.13;;;19.50;99.90;;;;;;6146900;23;20814;-69
2022/08/27 05:23:31;;;;;;;37.50;33.90;;;19.50;99.90;;;;;;6140886;23;20472;-69
2022/08/27 05:26:00;;;;;;;33.00;30.00;;;19.60;99.90;;;;;;6127900;23;20434;-69
2022/08/27 05:28:29;;;;;;;38.00;34.70;;;19.60;99.90;;;;;;6129084;23;20465;-69
2022/08/27 05:31:03;;;;;;;31.80;29.20;;;19.70;99.90;;;;;;6145641;23;20433;-69
2022/08/27 05:33:31;;;;;;;36.47;33.27;;;19.80;99.90;;;;;;6134954;23;20473;-69
2022/08/27 05:35:59;;;;;;;38.00;34.50;;;19.80;99.90;;;;;;6141823;23;20439;-69
2022/08/27 05:38:29;;;;;;;35.00;31.90;;;19.90;99.90;;;;;;6121487;23;20860;-68
2022/08/27 05:41:06;;;;;;;33.20;30.40;;;20.00;99.90;;;;;;6127357;23;20425;-69
2022/08/27 05:43:33;;;;;;;35.97;32.73;;;19.90;99.90;;;;;;6127753;23;20445;-69
2022/08/27 05:46:04;;;;;;;35.53;32.37;;;19.90;99.90;;;;;;6126560;23;20948;-69
2022/08/27 05:48:32;;;;;;;35.60;32.43;;;19.90;99.90;;;;;;6147404;23;20827;-68
2022/08/27 05:51:08;;;;;;;39.20;35.80;;;19.90;99.90;;;;;;6147422;23;20448;-69
2022/08/27 05:53:35;;;;;;;37.40;34.10;;;19.90;99.90;;;;;;6135528;23;20492;-69
2022/08/27 05:56:04;;;;;;;34.10;31.13;;;20.00;99.90;;;;;;6145793;23;20838;-69
2022/08/27 06:01:21;;;;;;;38.63;35.23;;;20.00;99.90;;;;;;6144575;23;20441;-68
2022/08/27 06:03:47;;;;;;;39.63;36.10;;;20.00;99.90;;;;;;6146198;23;20429;-68
2022/08/27 06:06:14;;;;;;;40.20;36.57;;;20.00;99.90;;;;;;6145726;23;20941;-68
2022/08/27 06:08:42;;;;;;;36.20;33.00;;;20.00;99.90;;;;;;6145891;23;20477;-68
2022/08/27 06:11:10;;;;;;;43.00;39.07;;;20.00;99.90;;;;;;6149107;23;20991;-69
2022/08/27 06:13:37;;;;;;;43.03;38.97;;;20.00;99.90;;;;;;6124816;23;20472;-68
2022/08/27 06:16:06;;;;;;;41.37;37.87;;;20.00;99.90;;;;;;6144092;23;20754;-70
2022/08/27 06:18:34;;;;;;;41.67;38.07;;;20.00;99.90;;;;;;6128953;23;20958;-68
2022/08/27 06:21:01;;;;;;;38.57;35.33;;;20.00;99.90;;;;;;6149887;23;20969;-68
2022/08/27 06:23:28;;;;;;;38.13;34.97;;;20.00;99.90;;;;;;6129736;23;20462;-68
2022/08/27 06:25:56;;;;;;;39.43;35.90;;;19.90;99.90;;;;;;6121186;23;20467;-68
2022/08/27 06:28:28;;;;;;;40.27;36.87;;;20.00;99.90;;;;;;6122918;23;20431;-68
2022/08/27 06:31:03;;;;;;;37.80;34.50;;;20.00;99.90;;;;;;6140097;23;20764;-68
2022/08/27 06:33:30;;;;;;;37.43;34.23;;;20.20;99.90;;;;;;6133817;23;20543;-68
2022/08/27 06:35:59;;;;;;;36.83;33.43;;;20.10;99.90;;;;;;6148279;23;20434;-69
2022/08/27 06:38:26;;;;;;;38.77;35.37;;;20.20;99.90;;;;;;6144171;23;20442;-68
2022/08/27 06:40:54;;;;;;;34.70;31.67;;;20.20;99.90;;;;;;6144383;23;20440;-68
2022/08/27 06:43:22;;;;;;;36.23;33.23;;;20.30;99.90;;;;;;6141681;23;20539;-68
2022/08/27 06:45:51;;;;;;;34.33;31.33;;;20.30;99.90;;;;;;6149856;23;20422;-68
2022/08/27 06:48:19;;;;;;;33.63;30.77;;;20.30;99.90;;;;;;6149232;23;20986;-68
2022/08/27 06:50:46;;;;;;;34.60;31.70;;;20.40;99.90;;;;;;6137358;23;20435;-69
2022/08/27 06:53:13;;;;;;;33.87;30.77;;;20.50;99.90;;;;;;6149903;23;20534;-68
2022/08/27 06:55:42;;;;;;;37.90;34.30;;;20.40;99.90;;;;;;6138152;23;20924;-68
2022/08/27 06:58:09;;;;;;;37.17;33.87;;;20.40;99.90;;;;;;6147931;23;20516;-68
2022/08/27 07:00:36;;;;;;;32.10;29.40;;;20.50;99.90;;;;;;6128187;23;20781;-68
2022/08/27 07:03:07;;;;;;;32.50;29.33;;;20.50;99.90;;;;;;6147185;23;20466;-68
2022/08/27 07:05:37;;;;;;;32.80;30.03;;;20.50;99.90;;;;;;6149668;23;20952;-68
2022/08/27 07:08:05;;;;;;;32.20;29.60;;;20.40;99.90;;;;;;6137424;23;20922;-68
2022/08/27 07:10:33;;;;;;;32.50;29.87;;;20.40;99.90;;;;;;6147629;23;20447;-68
2022/08/27 07:13:00;;;;;;;33.77;30.73;;;20.40;99.90;;;;;;6149316;23;20463;-68
2022/08/27 07:15:28;;;;;;;34.23;31.37;;;20.40;99.90;;;;;;6148424;23;20442;-68
2022/08/27 07:17:55;;;;;;;31.33;28.70;;;20.40;99.90;;;;;;6149360;23;20940;-68
2022/08/27 07:20:24;;;;;;;34.20;31.30;;;20.50;99.90;;;;;;6145253;23;20440;-68
2022/08/27 07:22:52;;;;;;;28.40;26.13;;;20.50;99.90;;;;;;6144229;23;20857;-68
2022/08/27 07:25:20;;;;;;;36.03;32.83;;;20.50;99.90;;;;;;6144268;23;20448;-68
2022/08/27 07:27:47;;;;;;;33.33;30.50;;;20.60;99.90;;;;;;6147643;23;20536;-68
2022/08/27 07:30:15;;;;;;;31.23;28.63;;;20.60;99.90;;;;;;6143510;23;21302;-68
2022/08/27 07:32:43;;;;;;;30.10;27.50;;;20.60;99.90;;;;;;6146174;23;20471;-68
2022/08/27 07:35:11;;;;;;;32.20;29.60;;;20.60;99.90;;;;;;6148648;23;20472;-68
2022/08/27 07:37:40;;;;;;;29.27;26.93;;;20.70;99.90;;;;;;6138970;23;20433;-68
2022/08/27 07:40:10;;;;;;;32.20;29.50;;;20.70;99.90;;;;;;6142164;23;20433;-68
2022/08/27 07:45:23;;;;;;;33.33;30.30;;;20.80;99.90;;;;;;6148135;23;20439;-68
2022/08/27 07:47:50;;;;;;;31.30;28.50;;;20.70;99.90;;;;;;6149341;23;20431;-68
2022/08/27 07:50:18;;;;;;;31.87;29.17;;;20.70;99.90;;;;;;6149404;23;20452;-68
2022/08/27 07:52:46;;;;;;;33.63;30.33;;;20.60;99.90;;;;;;6150075;23;20769;-68
2022/08/27 07:55:14;;;;;;;34.30;31.10;;;20.60;99.90;;;;;;6150270;23;20449;-68
2022/08/27 07:57:43;;;;;;;30.73;28.30;;;20.60;99.90;;;;;;6146107;23;20456;-68
2022/08/27 08:00:11;;;;;;;37.33;34.17;;;20.60;99.90;;;;;;6146880;23;20428;-68
2022/08/27 08:02:40;;;;;;;33.90;30.90;;;20.60;99.90;;;;;;6133563;23;20494;-68
2022/08/27 08:05:08;;;;;;;34.17;31.27;;;20.60;99.90;;;;;;6149855;23;20556;-68
2022/08/27 08:07:37;;;;;;;35.20;32.20;;;20.50;99.90;;;;;;6150267;23;20418;-68
2022/08/27 08:10:07;;;;;;;36.87;33.63;;;20.50;99.90;;;;;;6150276;23;20451;-68
2022/08/27 08:12:35;;;;;;;35.63;32.50;;;20.40;99.90;;;;;;6150384;23;20438;-68
2022/08/27 08:15:03;;;;;;;35.07;32.17;;;20.40;99.90;;;;;;6142080;23;20524;-69
2022/08/27 08:17:31;;;;;;;35.83;32.93;;;20.40;99.90;;;;;;6145759;23;20436;-68
2022/08/27 08:19:58;;;;;;;33.30;30.60;;;20.40;99.90;;;;;;6134667;23;20525;-68
2022/08/27 08:22:26;;;;;;;33.90;31.07;;;20.40;99.90;;;;;;6149893;23;20438;-69
2022/08/27 08:24:53;;;;;;;32.60;29.77;;;20.40;99.90;;;;;;6147751;23;20487;-69
2022/08/27 08:27:22;;;;;;;40.80;36.90;;;20.50;99.90;;;;;;6150195;23;20436;-69
2022/08/27 08:29:50;;;;;;;32.53;29.43;;;20.50;99.90;;;;;;6150182;23;20421;-69
2022/08/27 08:32:19;;;;;;;18.57;17.07;;;20.50;99.90;;;;;;6149885;23;20447;-69
2022/08/27 08:34:47;;;;;;;15.67;14.47;;;20.40;99.90;;;;;;6150442;23;20464;-69
2022/08/27 08:37:14;;;;;;;13.90;12.80;;;20.40;99.90;;;;;;6144654;23;20485;-69
2022/08/27 08:39:42;;;;;;;16.37;15.17;;;20.40;99.90;;;;;;6146031;23;20426;-69
2022/08/27 08:42:29;;;;;;;15.10;13.90;;;20.40;99.90;;;;;;6150160;23;20487;-69
2022/08/27 08:44:58;;;;;;;17.90;16.70;;;20.40;99.90;;;;;;6124292;23;20435;-69
2022/08/27 08:47:28;;;;;;;19.10;17.80;;;20.30;99.90;;;;;;6150133;23;20509;-69
2022/08/27 08:50:02;;;;;;;20.93;19.23;;;20.30;99.90;;;;;;6129061;23;20515;-69
2022/08/27 08:52:38;;;;;;;20.70;19.10;;;20.30;99.90;;;;;;6140098;23;20455;-70
2022/08/27 08:55:21;;;;;;;23.23;21.50;;;20.30;99.90;;;;;;6143306;23;20470;-69
2022/08/27 08:57:56;;;;;;;28.07;25.77;;;20.30;99.90;;;;;;6133364;23;20432;-70
2022/08/27 09:00:24;;;;;;;24.93;23.00;;;20.30;99.90;;;;;;6121191;23;20504;-70
2022/08/27 09:02:54;;;;;;;25.77;23.80;;;20.30;99.90;;;;;;6141347;23;20470;-70
2022/08/27 09:05:24;;;;;;;27.43;25.23;;;20.30;99.90;;;;;;6122015;23;20456;-69
2022/08/27 09:07:59;;;;;;;25.37;23.37;;;20.30;99.90;;;;;;6148863;23;20556;-69
2022/08/27 09:10:34;;;;;;;28.17;25.80;;;20.30;99.90;;;;;;6149861;23;20425;-69
2022/08/27 09:13:05;;;;;;;23.87;21.97;;;20.30;99.90;;;;;;6149739;23;20498;-69
2022/08/27 09:15:36;;;;;;;25.07;23.17;;;20.40;99.90;;;;;;6134634;23;20471;-69
2022/08/27 09:18:06;;;;;;;25.10;23.23;;;20.30;99.90;;;;;;6141591;23;20800;-69
2022/08/27 09:20:35;;;;;;;27.30;25.10;;;20.30;99.90;;;;;;6131131;23;20473;-69
2022/08/27 09:23:07;;;;;;;25.93;23.80;;;20.30;99.90;;;;;;6140669;23;20426;-69
2022/08/27 09:25:36;;;;;;;27.43;25.33;;;20.40;99.90;;;;;;6150679;23;20443;-69
2022/08/27 09:29:14;;;;;;;28.47;26.23;;;20.40;99.90;;;;;;6150126;23;20427;-69
2022/08/27 09:30:59;;;;;;;27.50;25.40;;;20.40;99.90;;;;;;6148558;23;20469;-70
2022/08/27 09:33:26;;;;;;;28.43;26.13;;;20.40;99.90;;;;;;6149067;23;21279;-70
2022/08/27 09:35:53;;;;;;;28.60;26.20;;;20.50;99.90;;;;;;6149794;23;20994;-69
2022/08/27 09:38:28;;;;;;;27.77;25.47;;;20.50;99.90;;;;;;6148586;23;20462;-69
2022/08/27 09:40:59;;;;;;;28.97;26.57;;;20.60;99.90;;;;;;6143723;23;20946;-69
2022/08/27 09:43:30;;;;;;;28.43;26.20;;;20.60;99.90;;;;;;6122975;23;20436;-69
2022/08/27 09:46:00;;;;;;;28.50;26.30;;;20.70;99.90;;;;;;6120613;23;20503;-70
2022/08/27 09:48:29;;;;;;;29.80;27.40;;;20.70;99.90;;;;;;6122123;23;20421;-70
2022/08/27 09:50:59;;;;;;;27.33;25.07;;;20.70;99.90;;;;;;6149941;23;20977;-69
2022/08/27 09:53:29;;;;;;;25.43;23.43;;;20.80;99.90;;;;;;6140041;23;20436;-69
2022/08/27 09:55:59;;;;;;;27.70;25.53;;;20.80;99.90;;;;;;6120737;23;20427;-69
2022/08/27 09:58:30;;;;;;;29.10;26.70;;;20.80;99.90;;;;;;6121589;23;20420;-70
2022/08/27 10:01:05;;;;;;;29.50;27.20;;;20.90;99.90;;;;;;6122682;23;20476;-70
2022/08/27 10:03:32;;;;;;;28.47;26.10;;;20.90;99.90;;;;;;6149758;23;20836;-70
2022/08/27 10:05:59;;;;;;;27.43;25.23;;;20.90;99.90;;;;;;6127000;23;20438;-70
2022/08/27 10:08:35;;;;;;;25.77;23.53;;;20.90;99.90;;;;;;6119982;23;20478;-69
2022/08/27 10:11:06;;;;;;;26.30;24.00;;;20.90;99.90;;;;;;6145061;23;20891;-70
2022/08/27 10:13:43;;;;;;;26.07;24.00;;;21.00;99.90;;;;;;6146048;23;20476;-70
2022/08/27 10:16:26;;;;;;;27.80;25.60;;;20.90;99.90;;;;;;6120841;23;20453;-69
2022/08/27 10:19:02;;;;;;;29.70;27.10;;;21.00;99.90;;;;;;6123933;23;20937;-69
2022/08/27 10:21:41;;;;;;;27.97;25.70;;;21.10;99.90;;;;;;6149786;23;20513;-69
2022/08/27 10:24:18;;;;;;;28.90;26.50;;;21.10;99.90;;;;;;6150066;23;20432;-69
2022/08/27 10:26:50;;;;;;;25.13;23.10;;;21.20;99.90;;;;;;6129302;23;20465;-69
2022/08/27 10:29:27;;;;;;;28.43;26.13;;;21.20;99.90;;;;;;6141594;23;20420;-69
2022/08/27 10:32:04;;;;;;;25.87;23.80;;;21.30;99.90;;;;;;6148794;23;20529;-69
2022/08/27 10:34:39;;;;;;;26.20;24.17;;;21.40;99.90;;;;;;6149589;23;20453;-70
2022/08/27 10:37:18;;;;;;;26.30;24.33;;;21.50;99.90;;;;;;6150475;23;20508;-69
2022/08/27 10:40:01;;;;;;;28.63;26.33;;;21.60;99.90;;;;;;6149889;23;20431;-69
2022/08/27 10:42:34;;;;;;;27.23;25.13;;;21.60;99.90;;;;;;6148140;23;20470;-69
2022/08/27 10:45:12;;;;;;;29.07;26.37;;;21.70;99.90;;;;;;6148632;23;20822;-69
2022/08/27 10:47:51;;;;;;;27.57;25.30;;;21.70;99.90;;;;;;6139686;23;20522;-69
2022/08/27 10:50:27;;;;;;;27.70;25.30;;;21.70;99.90;;;;;;6137143;23;20486;-69
2022/08/27 10:52:59;;;;;;;26.53;24.33;;;21.80;99.90;;;;;;6149767;23;20536;-69
2022/08/27 10:55:31;;;;;;;28.77;26.43;;;21.90;99.90;;;;;;6149604;23;20551;-69
2022/08/27 10:58:16;;;;;;;28.30;26.00;;;21.90;99.90;;;;;;6148721;23;20427;-69
2022/08/27 11:00:52;;;;;;;26.93;24.90;;;22.00;99.90;;;;;;6149170;23;20444;-69
2022/08/27 11:03:31;;;;;;;25.50;23.30;;;22.00;99.90;;;;;;6136633;23;20447;-69
2022/08/27 11:06:00;;;;;;;26.30;24.33;;;22.00;99.90;;;;;;6128040;23;20429;-69
2022/08/27 11:08:36;;;;;;;27.30;25.10;;;22.10;99.90;;;;;;6134230;23;20516;-69
2022/08/27 11:11:10;;;;;;;26.27;24.17;;;22.10;99.90;;;;;;6149467;23;20436;-69
2022/08/27 11:13:45;;;;;;;26.40;24.23;;;22.00;99.90;;;;;;6142588;23;20437;-70
2022/08/27 11:16:17;;;;;;;27.87;25.77;;;22.00;99.90;;;;;;6129513;23;20600;-69
2022/08/27 11:18:51;;;;;;;27.23;25.00;;;21.90;99.90;;;;;;6120117;23;20831;-69
2022/08/27 11:21:26;;;;;;;29.40;27.10;;;21.90;99.90;;;;;;6144032;23;20436;-69
2022/08/27 11:24:01;;;;;;;30.37;27.87;;;21.90;99.90;;;;;;6149163;23;20473;-69
2022/08/27 11:26:31;;;;;;;27.63;25.33;;;21.90;99.90;;;;;;6150769;23;20446;-69
2022/08/27 11:29:03;;;;;;;29.83;27.30;;;21.90;99.90;;;;;;6150931;23;20429;-69
2022/08/27 11:31:37;;;;;;;28.77;26.17;;;21.80;99.90;;;;;;6147515;23;20994;-70
2022/08/27 11:34:12;;;;;;;30.60;28.30;;;21.90;99.90;;;;;;6150496;23;20432;-69
2022/08/27 11:37:06;;;;;;;29.67;27.33;;;21.90;99.90;;;;;;6147852;23;20943;-69
2022/08/27 11:40:00;;;;;;;31.57;28.70;;;22.00;99.90;;;;;;6130381;23;20512;-69
2022/08/27 11:42:36;;;;;;;27.77;25.27;;;22.00;99.90;;;;;;6139782;23;20444;-69
2022/08/27 11:45:09;;;;;;;27.10;25.00;;;22.10;99.90;;;;;;6150388;23;20448;-69
2022/08/27 11:47:38;;;;;;;29.03;26.63;;;22.10;99.90;;;;;;6142767;23;20535;-69
2022/08/27 11:50:15;;;;;;;27.87;25.67;;;22.10;99.90;;;;;;6130544;23;20516;-69
2022/08/27 11:52:56;;;;;;;28.90;26.57;;;22.10;99.90;;;;;;6149667;23;20448;-69
2022/08/27 11:55:28;;;;;;;29.50;27.20;;;22.10;99.90;;;;;;6147746;23;21030;-69
2022/08/27 11:58:08;;;;;;;30.30;27.70;;;22.00;99.90;;;;;;6121303;23;20860;-69
2022/08/27 12:00:38;;;;;;;26.97;24.70;;;22.00;99.90;;;;;;6137887;23;20486;-69
2022/08/27 12:03:09;;;;;;;29.17;26.77;;;22.10;99.90;;;;;;6150141;23;20443;-69
2022/08/27 12:05:40;;;;;;;29.10;26.80;;;22.10;99.90;;;;;;6135111;23;20621;-69
2022/08/27 12:08:26;;;;;;;29.33;27.10;;;22.20;99.90;;;;;;6152072;23;20493;-69
2022/08/27 12:11:06;;;;;;;25.97;23.87;;;22.30;99.90;;;;;;6149893;23;20531;-69
2022/08/27 12:13:39;;;;;;;31.93;29.40;;;22.30;99.90;;;;;;6149046;23;20416;-69
2022/08/27 12:16:15;;;;;;;29.97;27.67;;;22.30;99.90;;;;;;6150530;23;20468;-69
2022/08/27 12:19:03;;;;;;;31.23;28.53;;;22.30;99.90;;;;;;6150663;23;20430;-69
2022/08/27 12:21:42;;;;;;;28.73;26.33;;;22.30;99.90;;;;;;6134295;23;20489;-69
2022/08/27 12:24:47;;;;;;;28.93;26.57;;;22.30;99.90;;;;;;6144025;23;20547;-69
2022/08/27 12:27:24;;;;;;;28.73;26.20;;;22.40;99.90;;;;;;6146438;23;20455;-69
2022/08/27 12:29:55;;;;;;;25.90;23.90;;;22.50;99.90;;;;;;6146661;23;20436;-69
2022/08/27 12:32:30;;;;;;;28.07;25.77;;;22.60;99.90;;;;;;6150171;23;20490;-69
2022/08/27 12:35:11;;;;;;;29.20;26.90;;;22.60;99.90;;;;;;6150159;23;20478;-69
2022/08/27 12:37:43;;;;;;;25.60;23.50;;;22.70;99.90;;;;;;6148929;23;20523;-69
2022/08/27 12:40:20;;;;;;;27.47;25.07;;;22.80;99.90;;;;;;6149663;23;20482;-69
2022/08/27 12:42:48;;;;;;;27.47;25.47;;;22.90;99.90;;;;;;6150080;23;20477;-69
2022/08/27 12:45:21;;;;;;;28.03;25.83;;;23.00;99.90;;;;;;6145595;23;20431;-69
2022/08/27 12:47:48;;;;;;;25.60;23.30;;;23.10;99.90;;;;;;6149260;23;20432;-69
2022/08/27 12:50:23;;;;;;;28.10;25.90;;;23.10;99.90;;;;;;6150021;23;20441;-69
2022/08/27 12:53:13;;;;;;;22.63;20.93;;;23.20;99.90;;;;;;6149276;23;20416;-69